Time;durP1;ratioP1;P1;durP2;ratioP2;P2;SDS_P1;SDS_P2;PMS_P1;PMS_P2;Temp;Humidity;BMP_temperature;BMP_pressure;BME280_temperature;BME280_humidity;BME280_pressure;Samples;Min_cycle;Max_cycle;Signal;HPM_P1;HPM_P2
2023/09/12 11:57:40;;;;;;;13.45;8.13;;;29.90;50.70;;;;;;6026536;29;20252;-80
2023/09/12 12:00:46;;;;;;;16.13;7.70;;;29.70;50.90;;;;;;6031907;29;20255;-81
2023/09/12 12:03:52;;;;;;;11.55;7.50;;;29.70;50.40;;;;;;6031661;29;20251;-80
2023/09/12 12:06:57;;;;;;;13.45;8.43;;;29.90;51.00;;;;;;6035161;29;20240;-79
2023/09/12 12:10:00;;;;;;;13.15;7.78;;;29.90;50.30;;;;;;6030056;29;20240;-81
2023/09/12 12:13:05;;;;;;;11.85;6.95;;;29.70;50.70;;;;;;6026495;29;20244;-80
2023/09/12 12:16:17;;;;;;;11.38;8.13;;;29.60;50.60;;;;;;6025938;29;20322;-79
2023/09/12 12:19:21;;;;;;;12.00;7.90;;;29.50;51.00;;;;;;6034021;29;20740;-81
2023/09/12 12:22:24;;;;;;;11.18;7.50;;;29.60;50.70;;;;;;6025480;29;20240;-81
2023/09/12 12:25:27;;;;;;;10.70;7.75;;;29.70;50.90;;;;;;6038105;29;20252;-81
2023/09/12 12:28:33;;;;;;;7.35;6.75;;;29.70;51.60;;;;;;6032799;29;20258;-82
2023/09/12 12:31:36;;;;;;;10.15;7.57;;;29.80;50.70;;;;;;6037356;29;20248;-80
2023/09/12 12:34:40;;;;;;;7.20;6.53;;;29.80;50.10;;;;;;6036601;29;20260;-81
2023/09/12 12:38:03;;;;;;;12.43;6.68;;;29.90;50.40;;;;;;6027870;29;20240;-78
2023/09/12 12:41:10;;;;;;;12.15;6.50;;;29.70;49.80;;;;;;6039697;29;20248;-81
2023/09/12 12:44:15;;;;;;;10.80;6.68;;;29.90;50.00;;;;;;6035323;29;20256;-80
2023/09/12 12:47:19;;;;;;;15.40;7.43;;;30.00;50.20;;;;;;6034897;29;20737;-81
2023/09/12 12:50:22;;;;;;;14.75;7.30;;;30.00;50.60;;;;;;6041983;29;20243;-81
2023/09/12 12:53:41;;;;;;;13.82;7.43;;;30.00;49.40;;;;;;6031465;29;20259;-80
2023/09/12 12:56:55;;;;;;;7.22;6.55;;;30.00;49.50;;;;;;6032919;29;20239;-80
2023/09/12 13:00:00;;;;;;;9.60;7.38;;;30.00;50.10;;;;;;6018848;29;20249;-79
2023/09/12 13:03:04;;;;;;;15.43;7.10;;;30.10;49.60;;;;;;6005054;29;20241;-80
2023/09/12 13:06:13;;;;;;;7.28;6.50;;;30.10;50.00;;;;;;6015571;29;20741;-79
2023/09/12 13:09:16;;;;;;;8.15;7.10;;;30.10;49.40;;;;;;6017383;29;20252;-80
2023/09/12 13:12:20;;;;;;;11.63;6.30;;;30.00;49.90;;;;;;6014165;29;20378;-80
2023/09/12 13:15:24;;;;;;;9.45;7.03;;;30.20;49.70;;;;;;6017616;29;20244;-80
2023/09/12 13:18:28;;;;;;;9.07;7.18;;;30.30;49.90;;;;;;6016309;29;20241;-82
2023/09/12 13:21:32;;;;;;;8.05;7.20;;;30.40;49.30;;;;;;6012276;29;20245;-81
2023/09/12 13:24:35;;;;;;;12.43;8.13;;;30.30;48.60;;;;;;6017294;29;20245;-81
2023/09/12 13:27:38;;;;;;;12.05;7.38;;;30.20;48.70;;;;;;6011826;29;20252;-81
2023/09/12 13:30:43;;;;;;;12.05;7.90;;;30.10;48.80;;;;;;6013510;29;20655;-81
2023/09/12 13:33:46;;;;;;;10.40;7.10;;;30.10;48.90;;;;;;6014939;29;20285;-82
2023/09/12 13:36:49;;;;;;;14.45;7.55;;;30.10;49.00;;;;;;6016975;29;20320;-82
2023/09/12 13:40:12;;;;;;;10.90;7.53;;;29.90;48.90;;;;;;6017838;29;20920;-80
2023/09/12 13:43:16;;;;;;;9.50;6.82;;;29.70;48.80;;;;;;6019761;29;20259;-80
2023/09/12 13:46:22;;;;;;;12.70;7.47;;;29.70;49.30;;;;;;6011848;29;20241;-80
2023/09/12 13:49:25;;;;;;;13.48;7.38;;;30.00;48.90;;;;;;6018444;29;20300;-81
2023/09/12 13:52:28;;;;;;;15.15;7.93;;;30.10;48.50;;;;;;6012448;29;20232;-82
2023/09/12 13:55:35;;;;;;;7.90;6.85;;;30.10;48.40;;;;;;6015075;29;20267;-82
2023/09/12 13:58:57;;;;;;;8.10;7.22;;;30.00;48.70;;;;;;6011021;29;20237;-80
2023/09/12 14:02:02;;;;;;;10.40;7.82;;;30.00;48.80;;;;;;6014995;29;20245;-79
2023/09/12 14:05:05;;;;;;;17.77;8.02;;;30.10;48.30;;;;;;6016834;29;20245;-78
2023/09/12 14:08:17;;;;;;;11.50;7.93;;;30.10;48.60;;;;;;6012639;29;20246;-82
2023/09/12 14:11:20;;;;;;;12.93;8.55;;;30.00;48.70;;;;;;6016625;29;20294;-81
2023/09/12 14:14:36;;;;;;;8.95;7.57;;;30.10;48.60;;;;;;6008284;29;20264;-79
2023/09/12 14:17:42;;;;;;;10.43;7.45;;;30.10;49.40;;;;;;6012283;29;20253;-79
2023/09/12 14:20:58;;;;;;;7.57;6.78;;;30.20;49.10;;;;;;6007500;29;20238;-79
2023/09/12 14:24:01;;;;;;;12.10;7.13;;;30.10;48.70;;;;;;6012218;29;20773;-81
2023/09/12 14:27:05;;;;;;;8.57;7.05;;;30.20;48.20;;;;;;6014020;29;20242;-80
2023/09/12 14:30:20;;;;;;;11.27;7.53;;;30.00;48.80;;;;;;6016561;29;20233;-79
2023/09/12 14:33:25;;;;;;;9.88;6.60;;;30.10;48.50;;;;;;6016067;29;20255;-81
2023/09/12 14:36:28;;;;;;;13.50;7.05;;;30.00;48.90;;;;;;6017419;29;20252;-79
2023/09/12 14:39:32;;;;;;;12.98;7.68;;;29.70;49.30;;;;;;6011237;29;20781;-79
2023/09/12 14:42:35;;;;;;;10.93;6.25;;;29.70;49.40;;;;;;6017866;29;21231;-81
2023/09/12 14:45:38;;;;;;;14.07;7.18;;;29.60;50.00;;;;;;6014531;29;22430;-81
2023/09/12 14:48:44;;;;;;;18.85;7.22;;;29.50;50.00;;;;;;6012504;29;20304;-79
2023/09/12 14:52:02;;;;;;;10.82;6.80;;;29.50;49.60;;;;;;6014412;29;20234;-80
2023/09/12 14:55:11;;;;;;;9.95;6.60;;;29.30;49.70;;;;;;6006563;29;20248;-80
2023/09/12 14:58:16;;;;;;;11.50;5.25;;;29.10;51.20;;;;;;6002091;29;20327;-80
2023/09/12 15:01:19;;;;;;;8.77;5.03;;;28.90;53.00;;;;;;6009568;29;20252;-81
2023/09/12 15:04:24;;;;;;;10.67;4.67;;;28.50;53.80;;;;;;6013825;29;20664;-81
2023/09/12 15:07:29;;;;;;;6.25;4.93;;;28.40;54.00;;;;;;6006079;29;20790;-80
2023/09/12 15:10:32;;;;;;;5.53;4.40;;;28.20;54.10;;;;;;6007006;29;20709;-78
2023/09/12 15:13:36;;;;;;;5.47;4.30;;;28.10;54.20;;;;;;6007103;29;20324;-80
2023/09/12 15:16:40;;;;;;;4.63;4.10;;;28.10;54.20;;;;;;6022588;29;20619;-80
2023/09/12 15:19:45;;;;;;;4.37;4.17;;;27.80;53.10;;;;;;6006456;29;20244;-78
2023/09/12 15:22:48;;;;;;;4.20;4.00;;;27.50;53.10;;;;;;6004978;29;20232;-77
2023/09/12 15:25:51;;;;;;;6.50;4.27;;;27.40;53.50;;;;;;6019695;29;20813;-78
2023/09/12 15:28:54;;;;;;;4.00;3.90;;;27.20;53.90;;;;;;6012880;29;21693;-78
2023/09/12 15:32:00;;;;;;;4.63;4.17;;;27.10;54.10;;;;;;6011484;29;20264;-77
2023/09/12 15:35:05;;;;;;;4.73;4.33;;;27.00;54.40;;;;;;6013087;29;20233;-79
2023/09/12 15:38:08;;;;;;;4.70;4.07;;;26.90;54.70;;;;;;6009534;29;20379;-77
2023/09/12 15:41:13;;;;;;;4.57;4.17;;;26.80;55.00;;;;;;6008033;29;20236;-78
2023/09/12 15:44:16;;;;;;;5.13;4.23;;;26.60;55.20;;;;;;6006606;29;20325;-79
2023/09/12 15:47:19;;;;;;;4.33;3.80;;;26.40;55.50;;;;;;6014102;29;20264;-79
2023/09/12 15:50:24;;;;;;;4.30;4.10;;;26.30;55.80;;;;;;6002038;29;20236;-78
2023/09/12 15:53:27;;;;;;;3.50;3.30;;;26.20;56.10;;;;;;6014283;29;20324;-78
2023/09/12 15:56:30;;;;;;;5.80;3.40;;;26.10;55.80;;;;;;6011728;29;20249;-78
2023/09/12 15:59:33;;;;;;;4.57;3.30;;;26.00;55.90;;;;;;6006865;29;20245;-77
2023/09/12 16:02:38;;;;;;;3.27;3.00;;;26.00;56.00;;;;;;6004870;29;20240;-77
2023/09/12 16:05:42;;;;;;;4.67;3.20;;;26.00;56.20;;;;;;6003469;29;20393;-77
2023/09/12 16:08:48;;;;;;;3.13;2.93;;;25.80;56.60;;;;;;6005613;29;20241;-81
2023/09/12 16:11:51;;;;;;;3.60;3.40;;;25.80;56.90;;;;;;6007888;29;20295;-77
2023/09/12 16:14:55;;;;;;;3.97;3.67;;;25.70;57.00;;;;;;6017631;29;20286;-77
2023/09/12 16:17:58;;;;;;;4.60;3.67;;;25.70;57.20;;;;;;6038916;29;20268;-76
2023/09/12 16:21:03;;;;;;;3.40;3.17;;;25.60;56.90;;;;;;6012169;29;20256;-76
2023/09/12 16:24:10;;;;;;;3.43;3.33;;;25.60;56.80;;;;;;6010101;29;20266;-77
2023/09/12 16:27:13;;;;;;;3.73;3.43;;;25.60;57.00;;;;;;6004566;29;20238;-80
2023/09/12 16:30:16;;;;;;;3.20;3.10;;;25.60;57.30;;;;;;6015215;29;20897;-81
2023/09/12 16:33:19;;;;;;;3.40;3.30;;;25.50;57.20;;;;;;6017363;29;20260;-81
2023/09/12 16:36:24;;;;;;;3.63;3.53;;;25.50;57.20;;;;;;6017672;29;20240;-80
2023/09/12 16:39:27;;;;;;;3.63;3.30;;;25.50;57.40;;;;;;6016916;29;20287;-78
2023/09/12 16:42:32;;;;;;;3.53;3.33;;;25.50;57.20;;;;;;6018740;29;20237;-78
2023/09/12 16:45:37;;;;;;;3.70;3.50;;;25.50;57.20;;;;;;6009971;29;20249;-79
2023/09/12 16:48:42;;;;;;;3.87;3.60;;;25.40;57.40;;;;;;6011126;29;20350;-80
2023/09/12 16:51:46;;;;;;;4.27;3.83;;;25.40;57.70;;;;;;6004931;29;20925;-79
2023/09/12 16:54:49;;;;;;;4.00;3.70;;;25.30;57.60;;;;;;6021423;29;20237;-80
2023/09/12 16:57:52;;;;;;;3.60;3.40;;;25.20;57.70;;;;;;6012932;29;20244;-77
2023/09/12 17:00:56;;;;;;;3.13;3.03;;;25.20;57.70;;;;;;6015001;29;20261;-80
2023/09/12 17:04:00;;;;;;;4.33;3.60;;;25.20;57.90;;;;;;6015471;29;20730;-78
2023/09/12 17:07:05;;;;;;;5.77;3.53;;;25.10;57.90;;;;;;6015428;29;20623;-80
2023/09/12 17:10:09;;;;;;;3.93;3.47;;;25.00;58.10;;;;;;6015939;29;20249;-82
2023/09/12 17:13:12;;;;;;;3.67;3.47;;;25.00;58.20;;;;;;6007184;29;20229;-81
2023/09/12 17:16:17;;;;;;;3.67;3.37;;;24.90;58.50;;;;;;6011535;29;20241;-78
2023/09/12 17:19:21;;;;;;;3.57;3.23;;;24.80;58.60;;;;;;6009749;29;20242;-78
2023/09/12 17:22:26;;;;;;;4.07;3.87;;;24.70;58.40;;;;;;6012580;29;20356;-76
2023/09/12 17:25:29;;;;;;;3.53;3.23;;;24.70;58.50;;;;;;6012014;29;20240;-76
2023/09/12 17:28:32;;;;;;;4.03;3.67;;;24.60;58.30;;;;;;6012823;29;20269;-77
2023/09/12 17:31:35;;;;;;;3.53;3.23;;;24.60;58.10;;;;;;6015931;29;20347;-78
2023/09/12 17:34:40;;;;;;;3.80;3.47;;;24.60;58.10;;;;;;6017875;29;20253;-77
2023/09/12 17:37:44;;;;;;;3.40;3.30;;;24.50;57.90;;;;;;6015255;29;20909;-79
2023/09/12 17:40:47;;;;;;;3.63;3.40;;;24.50;58.00;;;;;;6013434;29;20753;-76
2023/09/12 17:43:50;;;;;;;3.23;3.13;;;24.50;58.00;;;;;;6009948;29;20233;-79
2023/09/12 17:46:54;;;;;;;4.07;3.57;;;24.50;57.90;;;;;;6006309;29;20242;-76
2023/09/12 17:49:57;;;;;;;3.53;3.43;;;24.40;57.90;;;;;;6011798;29;20264;-78
2023/09/12 17:53:01;;;;;;;3.70;3.50;;;24.40;58.00;;;;;;6016484;29;20252;-77
2023/09/12 17:56:04;;;;;;;3.30;3.20;;;24.40;58.20;;;;;;6018430;29;20369;-77
2023/09/12 17:59:08;;;;;;;5.47;3.10;;;24.20;58.30;;;;;;6016011;29;20706;-78
2023/09/12 18:02:11;;;;;;;4.37;3.10;;;24.20;58.50;;;;;;6013133;29;20279;-79
2023/09/12 18:05:14;;;;;;;3.90;3.70;;;24.20;58.70;;;;;;6009826;29;20233;-78
2023/09/12 18:08:19;;;;;;;3.60;3.50;;;24.10;58.90;;;;;;6016065;29;20329;-79
2023/09/12 18:11:22;;;;;;;3.50;3.30;;;24.00;59.00;;;;;;6015023;29;20259;-77
2023/09/12 18:14:25;;;;;;;3.93;3.60;;;24.00;59.30;;;;;;6012551;29;20320;-78
2023/09/12 18:17:28;;;;;;;3.57;3.33;;;23.90;59.80;;;;;;6017063;29;21524;-77
2023/09/12 18:20:32;;;;;;;3.60;3.40;;;23.80;59.80;;;;;;6006516;29;20933;-79
2023/09/12 18:23:39;;;;;;;3.53;3.40;;;23.70;60.10;;;;;;6011459;29;20328;-78
2023/09/12 18:26:42;;;;;;;4.57;3.50;;;23.60;60.30;;;;;;6009181;29;20261;-77
2023/09/12 18:29:45;;;;;;;3.30;3.30;;;23.60;60.50;;;;;;6014309;29;20324;-78
2023/09/12 18:32:48;;;;;;;4.70;4.40;;;23.50;60.50;;;;;;6021104;29;20268;-77
2023/09/12 18:35:51;;;;;;;3.20;3.10;;;23.50;60.90;;;;;;6012837;29;20241;-78
2023/09/12 18:38:56;;;;;;;5.13;3.70;;;23.40;61.00;;;;;;6017550;29;20253;-76
2023/09/12 18:41:59;;;;;;;4.20;3.67;;;23.40;61.10;;;;;;6029458;29;20284;-77
2023/09/12 18:45:02;;;;;;;3.93;3.67;;;23.40;61.20;;;;;;6014911;29;20248;-76
2023/09/12 18:48:06;;;;;;;4.20;3.87;;;23.30;61.20;;;;;;6010803;29;20241;-76
2023/09/12 18:51:09;;;;;;;3.80;3.60;;;23.30;61.60;;;;;;6000832;29;20742;-79
2023/09/12 18:54:20;;;;;;;4.97;3.70;;;23.20;61.70;;;;;;6009262;29;20248;-78
2023/09/12 18:57:23;;;;;;;3.77;3.67;;;23.20;61.70;;;;;;6018314;29;20251;-80
2023/09/12 19:00:26;;;;;;;4.27;4.07;;;23.20;61.70;;;;;;6016266;29;20248;-78
2023/09/12 19:03:29;;;;;;;3.80;3.60;;;23.10;61.90;;;;;;6013642;29;20753;-78
2023/09/12 19:06:33;;;;;;;3.60;3.50;;;23.10;61.80;;;;;;6010171;29;20738;-80
2023/09/12 19:09:37;;;;;;;3.33;3.30;;;23.10;61.90;;;;;;6006344;29;20241;-80
2023/09/12 19:12:41;;;;;;;3.70;3.60;;;23.00;62.10;;;;;;6004301;29;20240;-83
2023/09/12 19:15:45;;;;;;;3.40;3.30;;;23.00;62.20;;;;;;6023015;29;20245;-86
2023/09/12 19:18:49;;;;;;;5.33;3.90;;;22.90;62.30;;;;;;6018779;29;20331;-89
2023/09/12 19:21:56;;;;;;;4.23;3.90;;;22.90;62.50;;;;;;6010447;29;20262;-87
2023/09/12 19:25:03;;;;;;;3.70;3.50;;;22.90;62.40;;;;;;6011159;29;20309;-86
2023/09/12 19:28:08;;;;;;;3.53;3.30;;;22.80;62.40;;;;;;6008479;29;20257;-86
2023/09/12 19:31:12;;;;;;;4.30;4.00;;;22.80;62.70;;;;;;6011129;29;20741;-86
2023/09/12 19:34:15;;;;;;;4.40;4.13;;;22.80;62.70;;;;;;6013575;29;20357;-84
2023/09/12 19:37:19;;;;;;;4.10;3.80;;;22.80;62.70;;;;;;6014848;29;20258;-88
2023/09/12 19:40:26;;;;;;;3.87;3.53;;;22.70;62.80;;;;;;6021825;29;20269;-87
2023/09/12 19:43:30;;;;;;;4.27;3.87;;;22.70;63.00;;;;;;6013842;29;20492;-86
2023/09/12 19:46:33;;;;;;;3.60;3.50;;;22.60;63.00;;;;;;6008538;29;20761;-86
2023/09/12 19:49:36;;;;;;;4.33;4.03;;;22.60;63.00;;;;;;6011338;29;20323;-85
2023/09/12 19:52:39;;;;;;;3.97;3.80;;;22.50;63.30;;;;;;6026530;29;20241;-84
2023/09/12 19:55:51;;;;;;;3.87;3.57;;;22.50;63.40;;;;;;6031739;29;20255;-85
2023/09/12 19:58:54;;;;;;;3.90;3.80;;;22.40;63.70;;;;;;6031588;29;20250;-84
2023/09/12 20:01:58;;;;;;;4.30;3.90;;;22.30;63.80;;;;;;6033819;29;20256;-84
2023/09/12 20:05:01;;;;;;;3.83;3.60;;;22.30;63.90;;;;;;6040746;29;20301;-85
2023/09/12 20:08:07;;;;;;;3.33;3.30;;;22.30;63.80;;;;;;6036115;29;20249;-84
2023/09/12 20:11:11;;;;;;;3.57;3.47;;;22.30;63.90;;;;;;6012337;29;20265;-86
2023/09/12 20:14:15;;;;;;;4.13;3.93;;;22.30;63.80;;;;;;6039756;29;20239;-84
2023/09/12 20:17:18;;;;;;;4.10;3.90;;;22.20;63.90;;;;;;6047634;29;20236;-86
2023/09/12 20:20:23;;;;;;;4.27;4.17;;;22.20;64.10;;;;;;6049098;29;20426;-85
2023/09/12 20:23:26;;;;;;;3.80;3.70;;;22.10;64.20;;;;;;6034669;29;20256;-86
2023/09/12 20:26:31;;;;;;;4.73;4.53;;;22.10;64.20;;;;;;6017104;29;20759;-85
2023/09/12 20:29:34;;;;;;;6.53;6.13;;;22.10;64.30;;;;;;6025208;29;20261;-84
2023/09/12 20:32:37;;;;;;;4.43;4.27;;;22.10;64.40;;;;;;6029999;29;20252;-85
2023/09/12 20:36:00;;;;;;;4.80;4.47;;;22.00;64.30;;;;;;6025804;29;20238;-84
2023/09/12 20:39:24;;;;;;;4.47;4.03;;;22.00;64.40;;;;;;6033554;29;20301;-83
2023/09/12 20:42:28;;;;;;;4.27;3.97;;;22.00;64.50;;;;;;6046868;29;20309;-83
2023/09/12 20:45:31;;;;;;;4.30;4.13;;;22.00;64.50;;;;;;6058399;29;20328;-80
2023/09/12 20:48:37;;;;;;;4.87;4.60;;;22.00;64.60;;;;;;6040316;29;20473;-85
2023/09/12 20:51:42;;;;;;;4.47;4.37;;;22.00;64.60;;;;;;6042989;29;20233;-82
2023/09/12 20:54:47;;;;;;;4.10;4.00;;;21.90;64.70;;;;;;6056193;29;20249;-81
2023/09/12 20:57:52;;;;;;;4.57;4.37;;;21.90;64.80;;;;;;6043244;29;20253;-82
2023/09/12 21:00:55;;;;;;;4.87;4.67;;;21.90;64.90;;;;;;6037591;29;20260;-81
2023/09/12 21:03:58;;;;;;;3.93;3.73;;;21.90;65.00;;;;;;6046836;29;20809;-82
2023/09/12 21:07:02;;;;;;;4.50;4.00;;;21.90;65.00;;;;;;6041701;29;20232;-83
2023/09/12 21:10:06;;;;;;;4.23;3.97;;;21.90;65.00;;;;;;6045321;29;20224;-82
2023/09/12 21:13:14;;;;;;;4.33;4.10;;;21.90;64.90;;;;;;6045555;29;20293;-85
2023/09/12 21:16:18;;;;;;;4.77;4.47;;;21.90;65.00;;;;;;6047423;29;20245;-85
2023/09/12 21:19:21;;;;;;;3.77;3.67;;;21.90;65.00;;;;;;6048965;29;20292;-83
2023/09/12 21:22:25;;;;;;;4.30;4.10;;;22.00;64.90;;;;;;6026057;29;20285;-86
2023/09/12 21:25:28;;;;;;;5.27;5.00;;;22.00;65.00;;;;;;6025139;29;20260;-85
2023/09/12 21:28:33;;;;;;;4.53;4.27;;;22.00;65.00;;;;;;6025795;29;20347;-85
2023/09/12 21:31:37;;;;;;;5.17;4.77;;;21.90;65.00;;;;;;6015444;29;20241;-87
2023/09/12 21:34:44;;;;;;;4.20;4.10;;;21.90;65.20;;;;;;6031109;29;20694;-84
2023/09/12 21:37:48;;;;;;;4.50;4.10;;;21.80;66.00;;;;;;6025344;29;20244;-86
2023/09/12 21:40:51;;;;;;;4.70;4.53;;;21.70;66.80;;;;;;6017345;29;20243;-86
2023/09/12 21:43:56;;;;;;;5.03;4.63;;;21.70;67.10;;;;;;6019675;29;20236;-85
2023/09/12 21:46:59;;;;;;;5.77;5.40;;;21.50;67.50;;;;;;6020181;29;20725;-86
2023/09/12 21:50:03;;;;;;;4.43;4.33;;;21.40;67.70;;;;;;6022674;29;20245;-86
2023/09/12 21:53:06;;;;;;;4.83;4.53;;;21.40;68.00;;;;;;6013353;29;20391;-87
2023/09/12 21:56:11;;;;;;;5.53;5.03;;;21.30;68.50;;;;;;6014823;29;20257;-84
2023/09/12 21:59:16;;;;;;;5.13;4.83;;;21.20;68.60;;;;;;6000853;29;20264;-87
2023/09/12 22:02:20;;;;;;;5.30;4.90;;;21.10;68.70;;;;;;6005896;29;20242;-86
2023/09/12 22:05:24;;;;;;;5.00;4.90;;;21.10;68.70;;;;;;6020399;29;20324;-88
2023/09/12 22:08:27;;;;;;;5.43;4.90;;;21.10;68.90;;;;;;6007520;29;20255;-86
2023/09/12 22:11:30;;;;;;;5.00;4.80;;;21.00;69.00;;;;;;6006469;29;20697;-84
2023/09/12 22:14:35;;;;;;;4.93;4.73;;;21.00;68.70;;;;;;6021891;29;20336;-85
2023/09/12 22:17:38;;;;;;;4.47;4.37;;;21.00;68.70;;;;;;6020707;29;20256;-87
2023/09/12 22:20:42;;;;;;;5.47;5.03;;;20.90;68.80;;;;;;6019517;29;20829;-85
2023/09/12 22:23:45;;;;;;;5.63;5.40;;;20.80;69.20;;;;;;6013417;29;20237;-86
2023/09/12 22:26:48;;;;;;;5.03;4.80;;;20.80;69.10;;;;;;6019465;29;20239;-86
2023/09/12 22:29:54;;;;;;;5.70;5.30;;;20.70;69.30;;;;;;6017131;29;20840;-87
2023/09/12 22:32:57;;;;;;;5.40;5.10;;;20.70;69.60;;;;;;6008052;29;20273;-85
2023/09/12 22:36:00;;;;;;;5.13;4.87;;;20.60;69.60;;;;;;6022687;29;20241;-87
2023/09/12 22:39:21;;;;;;;5.27;4.90;;;20.60;69.70;;;;;;6011678;29;20625;-82
2023/09/12 22:42:24;;;;;;;5.33;5.03;;;20.50;69.90;;;;;;6014842;29;20249;-86
2023/09/12 22:45:28;;;;;;;4.83;4.60;;;20.50;70.00;;;;;;6009294;29;20236;-83
2023/09/12 22:48:32;;;;;;;5.33;5.13;;;20.40;70.20;;;;;;6044492;29;20240;-79
2023/09/12 22:51:35;;;;;;;5.47;5.03;;;20.40;70.30;;;;;;6043985;29;20300;-81
2023/09/12 22:54:38;;;;;;;5.57;5.20;;;20.40;70.40;;;;;;6032912;29;20276;-81
2023/09/12 22:57:41;;;;;;;5.40;5.00;;;20.50;70.20;;;;;;6044495;29;20246;-81
2023/09/12 23:00:47;;;;;;;6.10;5.57;;;20.50;70.00;;;;;;6046665;29;20296;-83
2023/09/12 23:03:54;;;;;;;5.43;5.03;;;20.50;69.80;;;;;;6038951;29;20229;-83
2023/09/12 23:06:57;;;;;;;5.47;5.07;;;20.50;69.80;;;;;;6039185;29;20229;-83
2023/09/12 23:10:00;;;;;;;5.00;4.83;;;20.50;69.90;;;;;;6037645;29;20241;-84
2023/09/12 23:13:04;;;;;;;5.50;5.20;;;20.50;69.80;;;;;;6021209;29;20638;-86
2023/09/12 23:16:08;;;;;;;4.90;4.80;;;20.50;70.00;;;;;;6015823;29;20234;-84
2023/09/12 23:19:12;;;;;;;5.13;4.97;;;20.40;70.10;;;;;;6013338;29;20253;-86
2023/09/12 23:22:15;;;;;;;5.57;5.37;;;20.30;70.10;;;;;;6019117;29;20332;-85
2023/09/12 23:25:19;;;;;;;5.23;5.03;;;20.30;70.20;;;;;;6019319;29;20241;-83
2023/09/12 23:28:22;;;;;;;6.33;5.77;;;20.30;70.20;;;;;;6012857;29;20277;-83
2023/09/12 23:31:27;;;;;;;6.50;6.00;;;20.30;70.50;;;;;;6011565;29;20252;-84
2023/09/12 23:34:34;;;;;;;5.57;5.27;;;20.30;70.50;;;;;;6020489;29;20241;-87
2023/09/12 23:37:37;;;;;;;5.93;5.60;;;20.30;70.50;;;;;;6021042;29;20236;-83
2023/09/12 23:40:40;;;;;;;6.80;6.30;;;20.30;70.60;;;;;;6009078;29;20284;-87
2023/09/12 23:43:43;;;;;;;6.10;5.80;;;20.30;70.70;;;;;;6031612;29;20308;-87
2023/09/12 23:46:49;;;;;;;6.77;6.37;;;20.30;70.70;;;;;;6029579;29;20254;-85
2023/09/12 23:49:52;;;;;;;6.80;6.37;;;20.30;70.80;;;;;;6017976;29;20241;-85
2023/09/12 23:52:55;;;;;;;6.97;6.43;;;20.30;70.80;;;;;;6019783;29;20305;-84
2023/09/12 23:56:01;;;;;;;7.67;7.17;;;20.30;70.80;;;;;;6017737;29;20321;-86
2023/09/12 23:59:53;;;;;;;8.57;7.23;;;20.40;70.90;;;;;;6020156;29;20256;-85
